createdAt,value
2023-04-27T00:01:13.403Z,100.00
2023-04-27T00:03:43.503Z,100.00
2023-04-27T00:06:12.875Z,100.00
2023-04-27T00:08:42.209Z,100.00
2023-04-27T00:11:11.476Z,100.00
2023-04-27T00:13:42.116Z,100.00
2023-04-27T00:16:11.435Z,100.00
2023-04-27T00:18:40.842Z,100.00
2023-04-27T00:21:10.290Z,100.00
2023-04-27T00:23:39.565Z,100.00
2023-04-27T00:26:10.345Z,100.00
2023-04-27T00:28:43.422Z,100.00
2023-04-27T00:31:12.633Z,100.00
2023-04-27T00:33:41.735Z,100.00
2023-04-27T00:36:11.163Z,100.00
2023-04-27T00:38:40.356Z,100.00
2023-04-27T00:41:09.820Z,100.00
2023-04-27T00:43:45.786Z,100.00
2023-04-27T00:46:16.117Z,100.00
2023-04-27T00:48:45.793Z,100.00
2023-04-27T00:51:15.793Z,100.00
2023-04-27T00:53:45.252Z,100.00
2023-04-27T00:56:14.685Z,100.00
2023-04-27T00:58:45.354Z,100.00
2023-04-27T01:01:15.176Z,100.00
2023-04-27T01:03:45.311Z,100.00
2023-04-27T01:06:14.738Z,100.00
2023-04-27T01:08:47.018Z,100.00
2023-04-27T01:11:16.259Z,100.00
2023-04-27T01:13:46.927Z,100.00
2023-04-27T01:16:18.482Z,100.00
2023-04-27T01:18:48.334Z,100.00
2023-04-27T01:21:17.528Z,100.00
2023-04-27T01:23:48.066Z,100.00
2023-04-27T01:26:17.510Z,100.00
2023-04-27T01:28:47.041Z,100.00
2023-04-27T01:31:16.607Z,100.00
2023-04-27T01:33:45.945Z,100.00
2023-04-27T01:36:16.747Z,100.00
2023-04-27T01:38:47.580Z,100.00
2023-04-27T01:41:17.168Z,100.00
2023-04-27T01:43:46.318Z,100.00
2023-04-27T01:46:16.785Z,100.00
2023-04-27T01:48:46.162Z,100.00
2023-04-27T01:51:15.426Z,100.00
2023-04-27T01:53:48.484Z,100.00
2023-04-27T01:56:18.738Z,100.00
2023-04-27T01:58:47.832Z,100.00
2023-04-27T02:01:16.985Z,100.00
2023-04-27T02:03:46.341Z,100.00
2023-04-27T02:06:15.602Z,100.00
2023-04-27T02:08:44.818Z,100.00
2023-04-27T02:11:15.546Z,100.00
2023-04-27T02:13:45.182Z,100.00
2023-04-27T02:16:14.471Z,100.00
2023-04-27T02:18:43.594Z,100.00
2023-04-27T02:21:12.909Z,100.00
2023-04-27T02:23:42.030Z,100.00
2023-04-27T02:26:19.559Z,100.00
2023-04-27T02:28:48.962Z,100.00
2023-04-27T02:31:18.468Z,100.00
2023-04-27T02:33:48.534Z,100.00
2023-04-27T02:36:18.694Z,100.00
2023-04-27T02:38:47.863Z,100.00
2023-04-27T02:41:18.425Z,100.00
2023-04-27T02:43:47.930Z,100.00
2023-04-27T02:46:17.124Z,100.00
2023-04-27T02:48:46.230Z,100.00
2023-04-27T02:51:15.325Z,100.00
2023-04-27T02:53:44.424Z,100.00
2023-04-27T02:56:13.648Z,100.00
2023-04-27T02:58:44.938Z,100.00
2023-04-27T03:01:14.077Z,100.00
2023-04-27T03:03:43.353Z,100.00
2023-04-27T03:06:12.656Z,100.00
2023-04-27T03:08:41.871Z,100.00
2023-04-27T03:11:12.558Z,100.00
2023-04-27T03:13:43.030Z,100.00
2023-04-27T03:16:12.880Z,100.00
2023-04-27T03:18:42.370Z,100.00
2023-04-27T03:21:12.736Z,100.00
2023-04-27T03:23:42.032Z,100.00
2023-04-27T03:26:13.741Z,100.00
2023-04-27T03:28:44.941Z,100.00
2023-04-27T03:31:16.003Z,100.00
2023-04-27T03:33:45.211Z,100.00
2023-04-27T03:36:14.357Z,100.00
2023-04-27T03:38:44.039Z,100.00
2023-04-27T03:41:14.155Z,100.00
2023-04-27T03:43:45.284Z,100.00
2023-04-27T03:46:14.883Z,100.00
2023-04-27T03:48:44.231Z,100.00
2023-04-27T03:51:13.472Z,100.00
2023-04-27T03:53:42.515Z,100.00
2023-04-27T03:56:11.652Z,100.00
2023-04-27T03:58:40.754Z,100.00
2023-04-27T04:01:37.434Z,100.00
2023-04-27T04:04:06.869Z,100.00
2023-04-27T04:06:36.445Z,100.00
2023-04-27T04:09:13.268Z,100.00
2023-04-27T04:11:55.852Z,100.00
2023-04-27T04:15:06.436Z,100.00
2023-04-27T04:17:37.183Z,100.00
2023-04-27T04:20:11.003Z,100.00
2023-04-27T04:22:51.315Z,100.00
2023-04-27T04:26:14.581Z,100.00
2023-04-27T04:28:52.725Z,100.00
2023-04-27T04:31:22.196Z,100.00
2023-04-27T04:33:53.184Z,100.00
2023-04-27T04:36:24.069Z,100.00
2023-04-27T04:38:57.237Z,100.00
2023-04-27T04:41:27.491Z,100.00
2023-04-27T04:43:56.547Z,100.00
2023-04-27T04:46:25.870Z,100.00
2023-04-27T04:48:56.269Z,100.00
2023-04-27T04:51:25.312Z,100.00
2023-04-27T04:53:54.556Z,100.00
2023-04-27T04:56:25.771Z,100.00
2023-04-27T04:58:57.750Z,100.00
2023-04-27T05:01:27.343Z,100.00
2023-04-27T05:03:57.997Z,100.00
2023-04-27T05:06:27.718Z,100.00
2023-04-27T05:08:56.997Z,100.00
2023-04-27T05:11:26.070Z,100.00
2023-04-27T05:13:55.124Z,100.00
2023-04-27T05:16:26.444Z,100.00
2023-04-27T05:18:57.095Z,100.00
2023-04-27T05:21:26.131Z,100.00
2023-04-27T05:23:55.128Z,100.00
2023-04-27T05:26:24.198Z,100.00
2023-04-27T05:28:53.272Z,100.00
2023-04-27T05:31:22.468Z,100.00
2023-04-27T05:33:52.018Z,100.00
2023-04-27T05:36:22.487Z,100.00
2023-04-27T05:38:51.640Z,100.00
2023-04-27T05:41:20.708Z,100.00
2023-04-27T05:43:49.724Z,100.00
2023-04-27T05:46:18.759Z,100.00
2023-04-27T05:48:47.895Z,100.00
2023-04-27T05:51:16.906Z,100.00
2023-04-27T05:53:47.395Z,100.00
2023-04-27T05:56:16.476Z,100.00
2023-04-27T05:58:45.511Z,100.00
2023-04-27T06:01:14.594Z,100.00
2023-04-27T06:03:43.735Z,100.00
2023-04-27T06:06:12.958Z,100.00
2023-04-27T06:08:42.048Z,100.00
2023-04-27T06:11:12.499Z,100.00
2023-04-27T06:13:41.512Z,100.00
2023-04-27T06:16:10.558Z,100.00
2023-04-27T06:18:39.588Z,100.00
2023-04-27T06:21:08.598Z,100.00
2023-04-27T06:23:37.656Z,100.00
2023-04-27T06:26:06.861Z,100.00
2023-04-27T06:28:37.322Z,100.00
2023-04-27T06:31:07.174Z,100.00
2023-04-27T06:33:36.604Z,100.00
2023-04-27T06:36:05.915Z,100.00
2023-04-27T06:38:34.984Z,100.00
2023-04-27T06:41:04.364Z,100.00
2023-04-27T06:43:33.432Z,96.53
2023-04-27T06:46:03.960Z,95.07
2023-04-27T06:48:33.014Z,90.10
2023-04-27T06:51:02.049Z,91.14
2023-04-27T06:53:32.634Z,88.76
2023-04-27T06:56:01.832Z,87.93
2023-04-27T06:58:30.944Z,85.03
2023-04-27T07:01:00.017Z,85.38
2023-04-27T07:03:31.555Z,77.95
2023-04-27T07:06:00.822Z,76.92
2023-04-27T07:08:30.021Z,68.15
2023-04-27T07:10:59.437Z,71.05
2023-04-27T07:13:28.438Z,67.42
2023-04-27T07:15:58.826Z,64.47
2023-04-27T07:18:28.536Z,65.33
2023-04-27T07:20:58.970Z,62.00
2023-04-27T07:23:28.143Z,61.79
2023-04-27T07:25:57.804Z,61.94
2023-04-27T07:28:26.990Z,61.70
2023-04-27T07:30:56.043Z,60.39
2023-04-27T07:33:25.317Z,61.50
2023-04-27T07:35:54.693Z,58.90
2023-04-27T07:38:25.539Z,60.05
2023-04-27T07:40:54.741Z,59.56
2023-04-27T07:43:25.787Z,56.96
2023-04-27T07:45:55.658Z,60.06
2023-04-27T07:48:24.982Z,56.72
2023-04-27T07:50:54.388Z,60.01
2023-04-27T07:53:24.872Z,55.18
2023-04-27T07:55:53.963Z,58.87
2023-04-27T07:58:23.089Z,59.10
2023-04-27T08:00:52.124Z,57.78
2023-04-27T08:03:23.004Z,56.22
2023-04-27T08:05:52.544Z,60.25
2023-04-27T08:08:22.827Z,59.21
2023-04-27T08:10:53.735Z,62.09
2023-04-27T08:13:24.865Z,60.08
2023-04-27T08:15:58.439Z,56.68
2023-04-27T08:18:27.823Z,52.34
2023-04-27T08:20:57.071Z,47.94
2023-04-27T08:23:29.191Z,49.61
2023-04-27T08:25:59.639Z,47.64
2023-04-27T08:28:28.692Z,48.83
2023-04-27T08:30:58.052Z,47.33
2023-04-27T08:33:27.166Z,50.81
2023-04-27T08:35:56.219Z,52.82
2023-04-27T08:38:25.709Z,50.49
2023-04-27T08:40:54.819Z,48.38
2023-04-27T08:43:25.369Z,47.14
2023-04-27T08:45:54.434Z,52.50
2023-04-27T08:48:23.582Z,52.53
2023-04-27T08:50:53.952Z,49.55
2023-04-27T08:53:23.587Z,51.74
2023-04-27T08:55:52.595Z,51.87
2023-04-27T08:58:21.793Z,52.57
2023-04-27T09:00:52.669Z,51.80
2023-04-27T09:03:24.667Z,47.68
2023-04-27T09:06:04.749Z,49.61
2023-04-27T09:08:46.407Z,49.66
2023-04-27T09:11:16.481Z,46.36
2023-04-27T09:13:46.292Z,50.20
2023-04-27T09:16:17.113Z,50.77
2023-04-27T09:18:46.286Z,47.49
2023-04-27T09:21:24.321Z,50.24
2023-04-27T09:23:53.875Z,49.43
2023-04-27T09:26:25.329Z,49.66
2023-04-27T09:28:57.528Z,51.86
2023-04-27T09:31:35.150Z,49.64
2023-04-27T09:34:05.087Z,48.48
2023-04-27T09:36:34.224Z,47.93
2023-04-27T09:39:06.090Z,47.09
2023-04-27T09:41:35.358Z,45.15
2023-04-27T09:44:05.469Z,46.60
2023-04-27T09:46:36.914Z,44.89
2023-04-27T09:49:06.381Z,46.62
2023-04-27T09:51:35.971Z,46.61
2023-04-27T09:54:05.924Z,43.33
2023-04-27T09:56:47.632Z,43.29
2023-04-27T09:59:37.670Z,45.20
2023-04-27T10:02:24.099Z,45.76
2023-04-27T10:05:31.580Z,47.31
2023-04-27T10:08:01.487Z,43.99
2023-04-27T10:10:32.348Z,44.83
2023-04-27T10:13:03.756Z,45.61
2023-04-27T10:15:32.819Z,46.01
2023-04-27T10:18:07.513Z,46.90
2023-04-27T10:20:38.681Z,46.80
2023-04-27T10:23:07.912Z,46.37
2023-04-27T10:25:41.378Z,47.28
2023-04-27T10:28:18.527Z,45.35
2023-04-27T10:30:49.284Z,43.93
2023-04-27T10:33:22.971Z,41.84
2023-04-27T10:36:00.448Z,42.07
2023-04-27T10:38:30.917Z,42.96
2023-04-27T10:41:02.362Z,43.98
2023-04-27T10:43:33.403Z,43.94
2023-04-27T10:46:10.472Z,43.91
2023-04-27T10:48:42.385Z,43.08
2023-04-27T10:51:16.557Z,40.52
2023-04-27T10:53:45.856Z,41.48
2023-04-27T10:56:15.308Z,43.02
2023-04-27T10:58:48.725Z,40.55
2023-04-27T11:01:26.020Z,38.48
2023-04-27T11:04:00.337Z,34.96
2023-04-27T11:06:32.209Z,35.78
2023-04-27T11:09:02.760Z,36.27
2023-04-27T11:11:31.965Z,37.19
2023-04-27T11:14:02.616Z,36.28
2023-04-27T11:16:33.031Z,33.53
2023-04-27T11:19:07.854Z,35.56
2023-04-27T11:21:37.178Z,35.59
2023-04-27T11:24:07.844Z,36.68
2023-04-27T11:26:37.057Z,35.85
2023-04-27T11:29:10.457Z,32.59
2023-04-27T11:31:47.569Z,32.31
2023-04-27T11:34:19.750Z,30.05
2023-04-27T11:37:14.284Z,29.67
2023-04-27T11:39:47.113Z,30.97
2023-04-27T11:42:18.624Z,29.77
2023-04-27T11:44:55.362Z,29.11
2023-04-27T11:47:25.478Z,27.81
2023-04-27T11:49:57.721Z,28.75
2023-04-27T11:52:30.473Z,27.65
2023-04-27T11:55:02.263Z,26.72
2023-04-27T11:57:33.425Z,29.19
2023-04-27T12:00:10.913Z,28.07
2023-04-27T12:02:44.133Z,30.50
2023-04-27T12:05:15.612Z,32.67
2023-04-27T12:07:44.782Z,31.69
2023-04-27T12:10:14.127Z,32.38
2023-04-27T12:12:43.595Z,32.12
2023-04-27T12:15:13.220Z,32.80
2023-04-27T12:17:42.350Z,32.74
2023-04-27T12:20:15.341Z,31.43
2023-04-27T12:22:44.439Z,28.46
2023-04-27T12:25:13.455Z,29.59
2023-04-27T12:27:42.980Z,30.90
2023-04-27T12:30:13.570Z,29.85
2023-04-27T12:32:43.346Z,29.73
2023-04-27T12:35:13.169Z,32.76
2023-04-27T12:37:44.070Z,33.19
2023-04-27T12:40:14.306Z,34.78
2023-04-27T12:42:43.688Z,37.92
2023-04-27T12:45:18.637Z,40.43
2023-04-27T12:48:01.675Z,40.06
2023-04-27T12:50:35.726Z,35.10
2023-04-27T12:53:06.267Z,33.89
2023-04-27T12:55:43.091Z,33.61
2023-04-27T12:58:12.368Z,33.38
2023-04-27T13:00:44.491Z,34.90
2023-04-27T13:03:14.046Z,35.89
2023-04-27T13:05:45.736Z,33.74
2023-04-27T13:08:16.543Z,33.80
2023-04-27T13:10:47.551Z,33.90
2023-04-27T13:13:16.722Z,34.91
2023-04-27T13:15:47.515Z,33.29
2023-04-27T13:18:20.398Z,34.63
2023-04-27T13:20:50.227Z,34.46
2023-04-27T13:23:20.703Z,36.74
2023-04-27T13:25:49.871Z,37.71
2023-04-27T13:28:18.955Z,39.80
2023-04-27T13:30:48.960Z,38.53
2023-04-27T13:33:23.045Z,39.08
2023-04-27T13:35:53.289Z,38.42
2023-04-27T13:38:23.762Z,40.66
2023-04-27T13:40:52.935Z,41.10
2023-04-27T13:43:21.972Z,41.29
2023-04-27T13:45:52.643Z,39.84
2023-04-27T13:48:21.734Z,39.45
2023-04-27T13:50:51.152Z,38.50
2023-04-27T13:53:20.579Z,38.54
2023-04-27T13:55:50.968Z,36.10
2023-04-27T13:58:20.034Z,35.94
2023-04-27T14:00:49.308Z,37.22
2023-04-27T14:03:18.746Z,36.01
2023-04-27T14:05:48.963Z,36.36
2023-04-27T14:08:18.673Z,34.37
2023-04-27T14:10:47.987Z,32.98
2023-04-27T14:13:19.891Z,31.44
2023-04-27T14:15:48.966Z,32.69
2023-04-27T14:18:18.100Z,31.74
2023-04-27T14:20:47.224Z,33.53
2023-04-27T14:23:16.413Z,33.86
2023-04-27T14:25:45.403Z,34.35
2023-04-27T14:28:14.871Z,33.86
2023-04-27T14:30:45.685Z,31.83
2023-04-27T14:33:14.811Z,31.12
2023-04-27T14:35:43.888Z,26.05
2023-04-27T14:38:13.298Z,20.68
2023-04-27T14:40:42.380Z,20.11
2023-04-27T14:43:11.453Z,18.41
2023-04-27T14:45:50.818Z,17.59
2023-04-27T14:48:24.715Z,20.58
2023-04-27T14:50:57.815Z,20.31
2023-04-27T14:53:27.082Z,18.34
2023-04-27T14:55:56.327Z,19.41
2023-04-27T14:58:25.774Z,20.62
2023-04-27T15:00:55.052Z,23.50
2023-04-27T15:03:25.956Z,25.10
2023-04-27T15:05:55.862Z,26.57
2023-04-27T15:08:25.434Z,29.37
2023-04-27T15:10:57.737Z,31.18
2023-04-27T15:13:27.106Z,32.59
2023-04-27T15:15:57.030Z,33.79
2023-04-27T15:18:27.727Z,35.25
2023-04-27T15:20:57.831Z,36.50
2023-04-27T15:23:28.489Z,37.39
2023-04-27T15:25:59.326Z,36.74
2023-04-27T15:28:28.711Z,39.56
2023-04-27T15:30:57.798Z,35.81
2023-04-27T15:33:28.709Z,30.77
2023-04-27T15:35:59.036Z,30.87
2023-04-27T15:38:28.078Z,33.93
2023-04-27T15:40:57.083Z,33.17
2023-04-27T15:43:26.567Z,34.91
2023-04-27T15:45:55.935Z,37.42
2023-04-27T15:48:25.998Z,37.90
2023-04-27T15:50:56.957Z,38.46
2023-04-27T15:53:26.356Z,40.84
2023-04-27T15:55:55.556Z,39.78
2023-04-27T15:58:24.615Z,40.31
2023-04-27T16:00:53.674Z,40.67
2023-04-27T16:03:23.372Z,41.65
2023-04-27T16:05:52.539Z,42.91
2023-04-27T16:08:23.478Z,42.53
2023-04-27T16:10:52.702Z,43.43
2023-04-27T16:13:21.763Z,42.01
2023-04-27T16:15:51.037Z,42.58
2023-04-27T16:18:20.047Z,42.34
2023-04-27T16:20:49.097Z,44.27
2023-04-27T16:23:18.234Z,43.08
2023-04-27T16:25:48.595Z,42.60
2023-04-27T16:28:18.257Z,42.83
2023-04-27T16:30:47.427Z,42.40
2023-04-27T16:33:18.487Z,42.09
2023-04-27T16:35:47.537Z,42.58
2023-04-27T16:38:16.621Z,42.67
2023-04-27T16:40:45.680Z,41.51
2023-04-27T16:43:16.095Z,38.58
2023-04-27T16:45:45.211Z,39.46
2023-04-27T16:48:14.297Z,41.44
2023-04-27T16:50:43.616Z,42.28
2023-04-27T16:53:15.027Z,43.38
2023-04-27T16:55:44.116Z,44.60
2023-04-27T16:58:13.148Z,44.50
2023-04-27T17:00:43.572Z,42.34
2023-04-27T17:03:12.683Z,37.78
2023-04-27T17:05:41.876Z,35.58
2023-04-27T17:08:11.020Z,36.85
2023-04-27T17:10:40.759Z,40.04
2023-04-27T17:13:11.094Z,41.74
2023-04-27T17:15:40.142Z,42.40
2023-04-27T17:18:10.919Z,43.65
2023-04-27T17:20:42.155Z,45.67
2023-04-27T17:23:11.396Z,46.52
2023-04-27T17:25:41.543Z,47.72
2023-04-27T17:28:11.519Z,48.08
2023-04-27T17:30:42.126Z,48.93
2023-04-27T17:33:14.798Z,49.25
2023-04-27T17:35:44.957Z,50.29
2023-04-27T17:38:14.320Z,49.82
2023-04-27T17:40:44.139Z,50.82
2023-04-27T17:43:14.312Z,51.16
2023-04-27T17:45:43.904Z,52.01
2023-04-27T17:48:14.401Z,53.54
2023-04-27T17:50:43.518Z,53.87
2023-04-27T17:53:12.928Z,54.57
2023-04-27T17:55:42.888Z,54.78
2023-04-27T17:58:11.982Z,55.36
2023-04-27T18:00:42.822Z,56.22
2023-04-27T18:03:14.204Z,58.57
2023-04-27T18:05:43.567Z,59.29
2023-04-27T18:08:12.653Z,58.98
2023-04-27T18:10:41.667Z,60.90
2023-04-27T18:13:10.861Z,62.80
2023-04-27T18:15:39.944Z,61.58
2023-04-27T18:18:09.004Z,62.94
2023-04-27T18:20:45.142Z,62.78
2023-04-27T18:23:14.452Z,62.37
2023-04-27T18:25:44.082Z,63.86
2023-04-27T18:28:13.555Z,63.97
2023-04-27T18:30:43.021Z,64.04
2023-04-27T18:33:12.958Z,65.25
2023-04-27T18:35:44.138Z,65.43
2023-04-27T18:38:13.287Z,66.77
2023-04-27T18:40:42.463Z,67.64
2023-04-27T18:43:12.148Z,68.32
2023-04-27T18:45:42.104Z,69.54
2023-04-27T18:48:11.209Z,70.26
2023-04-27T18:50:40.327Z,70.96
2023-04-27T18:53:10.799Z,69.70
2023-04-27T18:55:40.766Z,73.50
2023-04-27T18:58:10.329Z,72.81
2023-04-27T19:00:39.962Z,72.37
2023-04-27T19:03:10.064Z,74.22
2023-04-27T19:05:43.192Z,72.69
2023-04-27T19:08:13.978Z,74.82
2023-04-27T19:10:43.215Z,77.26
2023-04-27T19:13:12.517Z,76.59
2023-04-27T19:15:42.049Z,75.69
2023-04-27T19:18:11.981Z,80.15
2023-04-27T19:20:41.449Z,77.95
2023-04-27T19:23:13.701Z,78.50
2023-04-27T19:25:43.668Z,78.88
2023-04-27T19:28:12.929Z,82.12
2023-04-27T19:30:42.332Z,86.99
2023-04-27T19:33:11.495Z,85.63
2023-04-27T19:35:40.745Z,92.09
2023-04-27T19:38:10.030Z,94.46
2023-04-27T19:40:40.506Z,91.69
2023-04-27T19:43:10.443Z,93.01
2023-04-27T19:45:41.849Z,95.94
2023-04-27T19:48:11.331Z,96.58
2023-04-27T19:50:42.963Z,95.56
2023-04-27T19:53:12.264Z,95.93
2023-04-27T19:55:42.759Z,100.00
2023-04-27T19:58:12.125Z,100.00
2023-04-27T20:00:41.439Z,100.00
2023-04-27T20:03:13.249Z,100.00
2023-04-27T20:05:43.151Z,100.00
2023-04-27T20:08:12.554Z,100.00
2023-04-27T20:10:43.524Z,100.00
2023-04-27T20:13:12.851Z,100.00
2023-04-27T20:15:43.385Z,100.00
2023-04-27T20:18:13.300Z,100.00
2023-04-27T20:20:43.345Z,100.00
2023-04-27T20:23:12.662Z,100.00
2023-04-27T20:25:43.058Z,100.00
2023-04-27T20:28:12.347Z,100.00
2023-04-27T20:30:41.650Z,99.76
2023-04-27T20:33:12.715Z,100.00
2023-04-27T20:35:42.642Z,100.00
2023-04-27T20:38:12.438Z,100.00
2023-04-27T20:40:43.767Z,100.00
2023-04-27T20:43:13.572Z,100.00
2023-04-27T20:45:43.127Z,100.00
2023-04-27T20:48:13.377Z,100.00
2023-04-27T20:50:42.583Z,100.00
2023-04-27T20:53:11.708Z,100.00
2023-04-27T20:55:42.889Z,100.00
2023-04-27T20:58:11.944Z,100.00
2023-04-27T21:00:41.109Z,100.00
2023-04-27T21:03:10.253Z,100.00
2023-04-27T21:05:40.992Z,100.00
2023-04-27T21:08:10.245Z,100.00
2023-04-27T21:10:39.368Z,100.00
2023-04-27T21:13:10.035Z,100.00
2023-04-27T21:15:42.476Z,100.00
2023-04-27T21:18:22.483Z,100.00
2023-04-27T21:20:58.712Z,100.00
2023-04-27T21:23:27.737Z,100.00
2023-04-27T21:25:56.961Z,100.00
2023-04-27T21:28:27.671Z,100.00
2023-04-27T21:30:56.737Z,100.00
2023-04-27T21:33:25.931Z,100.00
2023-04-27T21:35:55.010Z,100.00
2023-04-27T21:38:24.095Z,100.00
2023-04-27T21:40:53.123Z,100.00
2023-04-27T21:43:22.200Z,100.00
2023-04-27T21:45:52.705Z,100.00
2023-04-27T21:48:21.898Z,100.00
2023-04-27T21:50:51.354Z,100.00
2023-04-27T21:53:20.368Z,100.00
2023-04-27T21:55:49.486Z,100.00
2023-04-27T21:58:18.661Z,100.00
2023-04-27T22:00:48.733Z,100.00
2023-04-27T22:03:19.669Z,100.00
2023-04-27T22:05:50.352Z,100.00
2023-04-27T22:08:19.524Z,100.00
2023-04-27T22:10:48.542Z,100.00
2023-04-27T22:13:19.392Z,100.00
2023-04-27T22:15:49.452Z,100.00
2023-04-27T22:18:19.978Z,100.00
2023-04-27T22:20:49.442Z,100.00
2023-04-27T22:23:20.321Z,100.00
2023-04-27T22:25:49.338Z,100.00
2023-04-27T22:28:18.424Z,100.00
2023-04-27T22:30:47.554Z,100.00
2023-04-27T22:33:16.744Z,100.00
2023-04-27T22:35:47.891Z,100.00
2023-04-27T22:38:17.136Z,100.00
2023-04-27T22:40:46.183Z,100.00
2023-04-27T22:43:15.321Z,100.00
2023-04-27T22:45:44.353Z,100.00
2023-04-27T22:48:14.021Z,100.00
2023-04-27T22:50:43.061Z,100.00
2023-04-27T22:53:13.496Z,100.00
2023-04-27T22:55:42.656Z,100.00
2023-04-27T22:58:11.710Z,100.00
2023-04-27T23:00:40.745Z,100.00
2023-04-27T23:03:11.282Z,100.00
2023-04-27T23:05:40.447Z,100.00
2023-04-27T23:08:09.518Z,100.00
2023-04-27T23:10:39.999Z,100.00
2023-04-27T23:13:11.407Z,100.00
2023-04-27T23:15:40.873Z,100.00
2023-04-27T23:18:09.945Z,100.00
2023-04-27T23:20:39.042Z,100.00
2023-04-27T23:23:08.124Z,100.00
2023-04-27T23:25:37.171Z,100.00
2023-04-27T23:28:07.628Z,100.00
2023-04-27T23:30:36.753Z,100.00
2023-04-27T23:33:06.075Z,100.00
2023-04-27T23:35:35.300Z,100.00
2023-04-27T23:38:04.336Z,100.00
2023-04-27T23:40:33.375Z,100.00
2023-04-27T23:43:02.384Z,100.00
2023-04-27T23:45:32.918Z,100.00
2023-04-27T23:48:02.077Z,100.00
2023-04-27T23:50:31.202Z,100.00
2023-04-27T23:53:00.596Z,100.00
2023-04-27T23:55:29.596Z,100.00
2023-04-27T23:57:58.611Z,100.00
